Time;durP1;ratioP1;P1;durP2;ratioP2;P2;SDS_P1;SDS_P2;PMS_P1;PMS_P2;Temp;Humidity;BMP_temperature;BMP_pressure;BME280_temperature;BME280_humidity;BME280_pressure;Samples;Min_cycle;Max_cycle;Signal;HPM_P1;HPM_P2
2022/05/26 00:00:04;;;;;;;4.10;2.72;;;;;;;13.58;100.00;100608.50;5588963;31;34483;-69
2022/05/26 00:03:07;;;;;;;3.90;2.90;;;;;;;13.55;100.00;100619.53;5589701;31;34318;-69
2022/05/26 00:06:12;;;;;;;4.07;2.83;;;;;;;13.42;100.00;100624.66;5589137;31;34475;-67
2022/05/26 00:09:15;;;;;;;3.70;2.85;;;;;;;13.36;100.00;100625.38;5589578;31;33902;-69
2022/05/26 00:12:19;;;;;;;3.33;3.00;;;;;;;13.35;100.00;100631.72;5589604;31;35237;-69
2022/05/26 00:15:22;;;;;;;3.87;3.00;;;;;;;13.30;100.00;100631.41;5588877;31;34584;-67
2022/05/26 00:18:25;;;;;;;3.35;3.05;;;;;;;13.26;100.00;100636.28;5589578;31;33917;-68
2022/05/26 00:21:27;;;;;;;3.45;3.00;;;;;;;13.19;100.00;100639.81;5589449;31;34625;-70
2022/05/26 00:24:30;;;;;;;4.05;3.55;;;;;;;13.13;100.00;100652.03;5589441;31;34042;-70
2022/05/26 00:27:33;;;;;;;4.12;3.10;;;;;;;13.06;100.00;100648.38;5589344;31;34699;-68
2022/05/26 00:30:37;;;;;;;6.05;3.50;;;;;;;13.02;100.00;100649.75;5589261;31;34589;-71
2022/05/26 00:33:40;;;;;;;4.47;3.67;;;;;;;13.02;100.00;100653.22;5588606;31;34668;-68
2022/05/26 00:36:43;;;;;;;4.68;3.50;;;;;;;12.98;100.00;100648.44;5589143;31;34187;-67
2022/05/26 00:39:46;;;;;;;4.28;3.20;;;;;;;12.98;100.00;100665.25;5588609;31;34488;-70
2022/05/26 00:42:52;;;;;;;3.92;3.33;;;;;;;12.94;100.00;100663.09;5588636;31;32847;-68
2022/05/26 00:46:05;;;;;;;3.75;3.20;;;;;;;12.88;100.00;100659.31;5589319;31;33998;-69
2022/05/26 00:49:13;;;;;;;5.65;3.70;;;;;;;12.88;100.00;100661.13;5589203;31;34050;-69
2022/05/26 00:52:45;;;;;;;4.45;3.40;;;;;;;12.80;100.00;100674.50;5589190;31;34603;-67
2022/05/26 00:56:01;;;;;;;4.65;3.20;;;;;;;12.78;100.00;100680.00;5589453;31;34309;-68
2022/05/26 00:59:41;;;;;;;4.65;3.47;;;;;;;12.80;100.00;100667.34;5588410;31;32439;-69
2022/05/26 01:02:48;;;;;;;4.73;3.70;;;;;;;12.80;100.00;100686.00;5587871;31;32643;-67
2022/05/26 01:05:57;;;;;;;4.05;3.22;;;;;;;12.73;100.00;100682.34;5588300;31;32792;-70
2022/05/26 01:09:02;;;;;;;5.53;3.70;;;;;;;12.73;100.00;100676.22;5588227;31;32710;-70
2022/05/26 01:12:06;;;;;;;4.80;3.30;;;;;;;12.62;100.00;100688.91;5588162;31;33927;-71
2022/05/26 01:15:15;;;;;;;4.80;3.40;;;;;;;12.67;100.00;100674.25;5588842;31;34728;-69
2022/05/26 01:18:43;;;;;;;7.15;3.90;;;;;;;12.55;100.00;100690.59;5588048;31;34655;-68
2022/05/26 01:21:50;;;;;;;5.43;3.67;;;;;;;12.55;100.00;100687.09;5587926;31;33916;-70
2022/05/26 01:25:35;;;;;;;4.50;3.83;;;;;;;12.51;100.00;100691.94;5588676;31;34672;-70
2022/05/26 01:28:52;;;;;;;3.90;3.50;;;;;;;12.44;100.00;100692.81;5567703;31;35075;-69
2022/05/26 01:32:04;;;;;;;4.95;3.78;;;;;;;12.34;100.00;100694.84;5574675;31;32655;-71
2022/05/26 01:35:34;;;;;;;3.85;3.45;;;;;;;12.28;100.00;100685.72;5588537;31;34081;-69
2022/05/26 01:38:54;;;;;;;4.93;3.97;;;;;;;12.13;100.00;100685.59;5588510;31;33930;-68
2022/05/26 01:42:06;;;;;;;5.85;4.65;;;;;;;12.20;100.00;100694.53;5587473;31;33274;-68
2022/05/26 01:46:00;;;;;;;4.95;3.58;;;;;;;12.23;100.00;100700.53;5588279;31;34057;-67
2022/05/26 01:49:14;;;;;;;5.00;4.15;;;;;;;12.26;100.00;100700.19;5508718;32;33921;-69
2022/05/26 01:52:27;;;;;;;4.15;3.70;;;;;;;12.27;100.00;100709.81;5508907;32;33933;-68
2022/05/26 01:55:42;;;;;;;6.82;3.28;;;;;;;12.28;100.00;100708.84;5508640;32;33730;-70
2022/05/26 01:59:08;;;;;;;4.75;3.70;;;;;;;12.33;100.00;100717.97;5508567;32;34521;-69
2022/05/26 02:02:18;;;;;;;4.32;3.60;;;;;;;12.35;100.00;100720.44;5508456;32;33834;-68
2022/05/26 02:05:23;;;;;;;;;;;;;;;12.38;100.00;100718.28;5508727;32;34735;-70
2022/05/26 02:08:36;;;;;;;4.32;3.40;;;;;;;12.40;100.00;100712.78;5495771;32;34886;-67
2022/05/26 02:11:57;;;;;;;5.68;3.08;;;;;;;12.49;100.00;100722.41;5508303;32;33789;-69
2022/05/26 02:15:08;;;;;;;4.05;3.42;;;;;;;12.63;100.00;100727.81;5508242;32;34754;-68
2022/05/26 02:18:38;;;;;;;4.65;3.53;;;;;;;12.63;100.00;100727.81;5519658;31;33805;-69
2022/05/26 02:22:07;;;;;;;4.03;3.40;;;;;;;12.55;100.00;100724.38;5590460;31;33930;-69
2022/05/26 02:25:17;;;;;;;6.57;4.10;;;;;;;12.50;100.00;100726.72;5589903;31;33930;-68
2022/05/26 02:28:20;;;;;;;5.37;3.80;;;;;;;12.37;100.00;100721.09;5590423;31;33976;-69
2022/05/26 02:31:27;;;;;;;4.25;3.85;;;;;;;12.32;100.00;100729.59;5584891;31;148525;-68
2022/05/26 02:34:31;;;;;;;4.90;4.03;;;;;;;12.26;100.00;100735.59;5590692;31;34468;-67
2022/05/26 02:37:35;;;;;;;4.28;3.70;;;;;;;12.24;100.00;100742.94;5590326;31;34529;-68
2022/05/26 02:40:38;;;;;;;10.75;4.30;;;;;;;12.17;100.00;100744.59;5590532;31;34037;-69
2022/05/26 02:43:41;;;;;;;5.32;4.25;;;;;;;12.09;100.00;100753.44;5590298;31;34646;-68
2022/05/26 02:47:07;;;;;;;4.35;3.92;;;;;;;12.03;100.00;100754.09;5590533;31;34549;-68
2022/05/26 02:50:29;;;;;;;4.87;4.35;;;;;;;12.03;100.00;100767.38;5576712;31;33213;-69
2022/05/26 02:53:42;;;;;;;4.85;3.72;;;;;;;12.07;100.00;100773.19;5589506;31;33928;-71
2022/05/26 02:57:07;;;;;;;4.45;3.50;;;;;;;12.22;100.00;100776.84;5589660;31;32467;-66
2022/05/26 03:00:13;;;;;;;5.30;3.58;;;;;;;12.19;100.00;100775.38;5590170;31;34598;-70
2022/05/26 03:03:26;;;;;;;4.70;3.17;;;;;;;12.22;100.00;100774.19;5589543;31;33876;-71
2022/05/26 03:06:40;;;;;;;4.28;3.40;;;;;;;12.20;100.00;100777.00;5590537;31;34775;-69
2022/05/26 03:09:43;;;;;;;3.97;3.25;;;;;;;12.19;100.00;100766.53;5589789;31;34029;-68
2022/05/26 03:12:46;;;;;;;3.65;3.35;;;;;;;12.27;100.00;100766.53;5590453;31;34053;-69
2022/05/26 03:15:52;;;;;;;3.95;2.90;;;;;;;12.34;100.00;100775.50;5589575;31;32534;-70
2022/05/26 03:18:57;;;;;;;3.90;3.17;;;;;;;12.41;100.00;100779.13;5589491;31;33194;-68
2022/05/26 03:21:59;;;;;;;5.35;3.10;;;;;;;12.46;100.00;100786.59;5575950;31;32884;-69
2022/05/26 03:25:02;;;;;;;3.65;2.97;;;;;;;12.45;100.00;100787.59;5576041;31;32760;-67
2022/05/26 03:28:05;;;;;;;4.10;3.10;;;;;;;12.48;100.00;100795.25;5588998;31;33915;-69
2022/05/26 03:31:08;;;;;;;3.47;2.90;;;;;;;12.54;100.00;100787.41;5589770;31;34118;-69
2022/05/26 03:40:58;;;;;;;5.50;3.33;;;;;;;12.64;100.00;100804.00;5589929;31;34709;-70
2022/05/26 03:44:00;;;;;;;3.92;2.90;;;;;;;12.76;100.00;100803.66;5589916;31;34315;-70
2022/05/26 03:47:04;;;;;;;3.90;3.08;;;;;;;12.75;99.94;100808.16;5590075;31;34574;-71
2022/05/26 03:50:07;;;;;;;3.17;2.60;;;;;;;12.79;99.77;100814.78;5589027;31;32776;-71
2022/05/26 03:53:10;;;;;;;4.28;3.00;;;;;;;12.85;99.10;100823.91;5589080;31;32671;-71
2022/05/26 03:56:13;;;;;;;7.93;2.47;;;;;;;12.90;98.64;100830.41;5588969;31;33587;-70
2022/05/26 03:59:16;;;;;;;4.07;2.35;;;;;;;13.00;97.55;100831.03;5588666;31;34023;-70
2022/05/26 04:02:19;;;;;;;5.95;2.37;;;;;;;13.06;96.70;100833.00;5588755;31;33676;-71
2022/05/26 04:05:22;;;;;;;2.97;2.40;;;;;;;13.15;96.45;100833.84;5589704;31;34565;-71
2022/05/26 04:08:24;;;;;;;3.42;2.50;;;;;;;13.29;95.74;100829.59;5588980;31;33348;-71
2022/05/26 04:11:27;;;;;;;4.28;2.58;;;;;;;13.35;95.09;100826.25;5588691;31;32402;-70
2022/05/26 04:14:30;;;;;;;3.90;2.50;;;;;;;13.55;94.31;100837.28;5588914;31;32437;-70
2022/05/26 04:17:33;;;;;;;3.58;2.45;;;;;;;13.49;94.11;100826.31;5589547;31;33963;-70
2022/05/26 04:20:36;;;;;;;5.47;2.62;;;;;;;13.48;93.91;100830.00;5589379;31;34102;-69
2022/05/26 04:23:39;;;;;;;2.65;2.40;;;;;;;13.52;93.57;100825.12;5589383;31;33885;-69
2022/05/26 04:26:42;;;;;;;2.87;2.20;;;;;;;13.63;93.66;100823.91;5588579;31;35235;-71
2022/05/26 04:29:45;;;;;;;2.60;2.20;;;;;;;13.76;91.65;100832.97;5588770;31;32321;-69
2022/05/26 04:32:49;;;;;;;2.75;2.17;;;;;;;13.82;91.34;100829.59;5588375;31;32548;-69
2022/05/26 04:35:52;;;;;;;2.65;2.08;;;;;;;13.94;90.07;100832.69;5588733;31;33266;-70
2022/05/26 04:38:56;;;;;;;2.17;1.90;;;;;;;13.98;89.38;100838.50;5589058;31;32750;-69
2022/05/26 04:42:01;;;;;;;2.25;2.05;;;;;;;14.14;88.55;100836.50;5575440;31;33296;-68
2022/05/26 04:45:07;;;;;;;3.08;1.75;;;;;;;14.22;87.96;100844.47;5589097;31;34624;-68
2022/05/26 04:48:10;;;;;;;2.35;1.80;;;;;;;14.38;86.17;100850.72;5589024;31;33886;-70
2022/05/26 04:51:12;;;;;;;2.67;1.73;;;;;;;14.57;85.86;100855.53;5589072;31;34267;-71
2022/05/26 04:54:16;;;;;;;2.90;1.73;;;;;;;14.75;84.50;100848.00;5588243;31;33958;-70
2022/05/26 04:57:22;;;;;;;2.62;1.58;;;;;;;14.83;83.70;100847.06;5588177;31;32410;-71
2022/05/26 05:00:25;;;;;;;2.60;1.52;;;;;;;15.05;84.57;100854.16;5588761;31;33847;-71
2022/05/26 05:03:27;;;;;;;1.75;1.30;;;;;;;15.14;83.57;100856.56;5588751;31;34529;-70
2022/05/26 05:06:30;;;;;;;3.10;1.50;;;;;;;15.39;80.51;100867.78;5587870;31;33346;-70
2022/05/26 05:09:33;;;;;;;2.22;1.48;;;;;;;15.51;80.47;100868.97;5588007;31;32437;-70
2022/05/26 05:12:36;;;;;;;2.55;1.70;;;;;;;15.62;79.99;100871.16;5587803;31;35151;-67
2022/05/26 05:15:50;;;;;;;1.95;1.20;;;;;;;15.56;80.15;100871.91;5588128;31;32647;-71
2022/05/26 05:18:58;;;;;;;1.30;1.20;;;;;;;15.64;79.48;100878.97;5588578;31;34139;-70
2022/05/26 05:22:24;;;;;;;1.87;1.40;;;;;;;15.78;77.82;100882.66;5587528;31;34220;-68
2022/05/26 05:25:33;;;;;;;1.15;1.00;;;;;;;15.98;77.25;100892.53;5587506;31;33671;-70
2022/05/26 05:28:41;;;;;;;1.73;1.30;;;;;;;16.13;76.87;100896.97;5587197;31;34004;-70
2022/05/26 05:31:48;;;;;;;2.17;1.10;;;;;;;16.23;76.01;100902.84;5587926;31;34067;-70
2022/05/26 05:35:05;;;;;;;2.10;1.20;;;;;;;16.38;75.76;100904.44;5587371;31;32962;-71
2022/05/26 05:38:08;;;;;;;2.08;1.10;;;;;;;16.48;74.46;100904.13;5588151;31;33932;-70
2022/05/26 05:41:11;;;;;;;1.77;0.95;;;;;;;16.48;74.49;100901.44;5587068;31;32752;-71
2022/05/26 05:44:14;;;;;;;2.80;1.23;;;;;;;16.72;73.39;100903.72;5586962;31;32833;-69
2022/05/26 05:47:17;;;;;;;1.70;1.17;;;;;;;16.87;72.52;100906.28;5587898;31;34305;-70
2022/05/26 05:50:20;;;;;;;2.80;1.30;;;;;;;16.94;72.73;100915.22;5587227;31;32529;-69
2022/05/26 05:53:23;;;;;;;1.87;1.10;;;;;;;16.89;72.62;100913.09;5589984;31;34272;-70
2022/05/26 05:56:26;;;;;;;2.03;1.05;;;;;;;16.95;73.25;100917.69;5589663;31;33104;-69
2022/05/26 05:59:28;;;;;;;1.15;0.90;;;;;;;16.94;71.96;100918.69;5589867;31;32647;-70
2022/05/26 06:02:31;;;;;;;1.67;1.00;;;;;;;17.01;71.48;100923.28;5590707;31;34007;-67
2022/05/26 06:05:36;;;;;;;2.15;1.10;;;;;;;17.10;70.28;100928.28;5589813;31;32460;-66
2022/05/26 06:08:39;;;;;;;2.58;0.70;;;;;;;17.30;68.39;100923.88;5589586;31;32520;-66
2022/05/26 06:11:43;;;;;;;1.52;0.85;;;;;;;17.23;67.63;100922.22;5590259;31;34041;-67
2022/05/26 06:14:46;;;;;;;0.90;0.73;;;;;;;17.47;67.24;100924.41;5590333;31;34052;-67
2022/05/26 06:17:49;;;;;;;0.70;0.70;;;;;;;17.36;66.76;100927.63;5590263;31;34765;-67
2022/05/26 06:21:00;;;;;;;0.82;0.70;;;;;;;17.57;66.83;100918.66;5589884;31;33869;-68
2022/05/26 06:24:03;;;;;;;4.90;0.80;;;;;;;17.52;67.68;100931.84;5589374;31;34584;-67
2022/05/26 06:30:33;;;;;;;1.10;0.90;;;;;;;17.78;66.36;100938.16;5588919;31;33260;-66
2022/05/26 06:37:15;;;;;;;1.58;1.00;;;;;;;17.83;68.10;100945.59;5590132;31;33854;-68
2022/05/26 06:40:18;;;;;;;3.37;1.00;;;;;;;17.91;67.20;100953.47;5588751;31;33154;-67
2022/05/26 06:43:21;;;;;;;0.98;0.80;;;;;;;18.08;66.34;100968.19;5589172;31;32559;-69
2022/05/26 06:46:24;;;;;;;3.37;0.80;;;;;;;17.94;66.56;100968.38;5589655;31;34234;-70
2022/05/26 06:49:27;;;;;;;5.87;0.75;;;;;;;18.15;67.29;100970.91;5589002;31;32515;-65
2022/05/26 06:52:29;;;;;;;1.05;0.75;;;;;;;18.18;65.62;100968.66;5589166;31;33907;-68
2022/05/26 06:55:32;;;;;;;3.72;0.80;;;;;;;18.41;65.83;100967.44;5588858;31;32761;-69
2022/05/26 06:58:35;;;;;;;1.83;0.80;;;;;;;18.83;64.37;100964.38;5590009;31;34111;-69
2022/05/26 07:01:38;;;;;;;2.22;0.90;;;;;;;19.05;65.40;100962.31;5589847;31;34620;-69
2022/05/26 07:04:42;;;;;;;1.23;0.82;;;;;;;19.20;63.31;100971.00;5588910;31;33224;-69
2022/05/26 07:07:45;;;;;;;3.35;1.27;;;;;;;19.03;63.08;100967.06;5589930;31;33985;-68
2022/05/26 07:10:50;;;;;;;2.25;0.80;;;;;;;18.98;63.46;100961.47;5589305;31;34045;-67
2022/05/26 07:13:53;;;;;;;1.27;0.70;;;;;;;18.92;63.51;100955.09;5589269;31;34102;-70
2022/05/26 07:16:56;;;;;;;1.00;0.88;;;;;;;19.08;64.20;100954.66;5589330;31;33213;-67
2022/05/26 07:20:00;;;;;;;2.15;0.90;;;;;;;19.50;61.82;100957.91;5589285;31;33871;-69
2022/05/26 07:23:08;;;;;;;2.70;0.90;;;;;;;19.50;61.96;100956.06;5589673;31;33871;-68
2022/05/26 07:26:13;;;;;;;1.55;0.90;;;;;;;19.69;61.04;100964.25;5588929;31;32899;-70
2022/05/26 07:29:16;;;;;;;2.50;0.70;;;;;;;20.39;59.13;100965.97;5589749;31;33882;-70
2022/05/26 07:32:19;;;;;;;2.17;0.70;;;;;;;20.92;57.91;100968.25;5588873;31;32839;-68
2022/05/26 07:35:21;;;;;;;1.58;0.85;;;;;;;21.41;56.46;100970.09;5588641;31;32909;-69
2022/05/26 07:41:52;;;;;;;1.45;0.70;;;;;;;22.33;53.39;100979.75;5588706;31;33440;-68
2022/05/26 07:44:57;;;;;;;0.93;0.77;;;;;;;23.11;51.94;100993.09;5588866;31;32778;-70
2022/05/26 07:48:00;;;;;;;3.53;1.00;;;;;;;22.87;51.59;100981.44;5589469;31;34794;-71
2022/05/26 07:51:03;;;;;;;2.12;0.50;;;;;;;22.57;52.92;100992.28;5588935;31;32492;-71
2022/05/26 07:54:06;;;;;;;1.05;0.80;;;;;;;23.54;49.82;100985.44;5588871;31;33373;-67
2022/05/26 07:57:26;;;;;;;1.37;0.65;;;;;;;22.71;51.49;100993.75;5589283;31;34295;-66
2022/05/26 08:00:29;;;;;;;0.82;0.70;;;;;;;23.77;49.13;101000.81;5588982;31;33410;-68
2022/05/26 08:03:33;;;;;;;0.75;0.68;;;;;;;24.18;47.97;101003.31;5588903;31;34024;-68
2022/05/26 08:06:36;;;;;;;1.30;0.57;;;;;;;24.75;47.90;101005.12;5589056;31;33906;-69
2022/05/26 08:09:40;;;;;;;3.20;1.00;;;;;;;24.39;46.85;101001.81;5588763;31;32601;-68
2022/05/26 08:12:43;;;;;;;1.25;0.62;;;;;;;24.78;46.17;101005.47;5575627;31;32442;-68
2022/05/26 08:15:46;;;;;;;4.78;0.70;;;;;;;25.36;44.85;100999.63;5588535;31;34752;-70
2022/05/26 08:18:50;;;;;;;1.52;0.75;;;;;;;25.88;43.80;100991.91;5589291;31;33968;-68
2022/05/26 08:21:53;;;;;;;2.60;0.85;;;;;;;25.93;43.16;100997.41;5589464;31;33924;-67
2022/05/26 08:24:57;;;;;;;3.70;0.80;;;;;;;25.54;43.38;100998.50;5589087;31;33875;-70
2022/05/26 08:28:00;;;;;;;1.08;0.75;;;;;;;25.03;45.14;100989.59;5588128;31;33488;-69
2022/05/26 08:31:04;;;;;;;1.42;0.70;;;;;;;24.87;46.39;100990.44;5589161;31;34767;-69
2022/05/26 08:34:07;;;;;;;0.85;0.70;;;;;;;26.49;42.45;100986.28;5589671;31;34288;-70
2022/05/26 08:37:15;;;;;;;2.35;0.90;;;;;;;27.30;40.07;101000.59;5588273;31;33974;-69
2022/05/26 08:40:33;;;;;;;1.87;0.80;;;;;;;27.63;38.85;100992.06;5587977;31;33320;-69
2022/05/26 08:43:39;;;;;;;1.27;0.77;;;;;;;26.85;40.14;100990.97;5588263;31;33834;-70
2022/05/26 08:46:49;;;;;;;2.55;1.30;;;;;;;27.43;39.56;100997.38;5587927;31;32887;-69
2022/05/26 08:49:59;;;;;;;1.65;0.90;;;;;;;26.32;40.74;100992.69;5588645;31;34558;-67
2022/05/26 08:53:20;;;;;;;1.92;0.90;;;;;;;25.72;41.25;101000.94;5575487;31;32648;-69
2022/05/26 08:56:26;;;;;;;2.15;0.62;;;;;;;25.70;41.21;100994.13;5588626;31;34055;-68
2022/05/26 08:59:39;;;;;;;2.60;0.80;;;;;;;25.37;41.68;100997.69;5587676;31;33694;-68
2022/05/26 09:02:42;;;;;;;5.15;0.98;;;;;;;25.96;39.74;100990.63;5574770;31;33700;-69
2022/05/26 09:05:49;;;;;;;0.88;0.57;;;;;;;26.57;40.69;100994.00;5588856;31;34104;-69
2022/05/26 09:15:36;;;;;;;2.50;0.68;;;;;;;27.55;37.48;100987.09;5587668;31;33567;-70
2022/05/26 09:18:40;;;;;;;0.82;0.60;;;;;;;28.89;33.32;100994.31;5587795;31;33820;-69
2022/05/26 09:21:46;;;;;;;5.03;0.90;;;;;;;27.22;35.75;100996.44;5588192;31;34768;-71
2022/05/26 09:24:49;;;;;;;0.82;0.60;;;;;;;28.72;34.31;100996.47;5588719;31;34615;-70
2022/05/26 09:27:51;;;;;;;1.02;0.60;;;;;;;28.98;33.42;101003.56;5590392;31;33903;-70
2022/05/26 09:30:54;;;;;;;0.62;0.50;;;;;;;29.84;30.71;101002.53;5589848;31;34137;-69
2022/05/26 09:34:18;;;;;;;0.75;0.50;;;;;;;28.14;32.14;101004.00;5577044;31;33876;-70
2022/05/26 09:37:40;;;;;;;0.70;0.50;;;;;;;29.26;30.99;100996.69;5590833;31;34202;-70
2022/05/26 09:40:52;;;;;;;1.62;0.65;;;;;;;29.30;31.44;100984.09;5590886;31;32505;-71
2022/05/26 09:43:58;;;;;;;15.48;1.30;;;;;;;30.91;28.56;100992.56;5595454;31;34275;-67
2022/05/26 09:47:10;;;;;;;0.98;0.50;;;;;;;30.56;27.96;100997.25;5580244;31;33154;-71
2022/05/26 09:50:33;;;;;;;0.77;0.52;;;;;;;28.80;29.61;100985.84;5592274;31;32592;-70
2022/05/26 09:53:42;;;;;;;2.85;0.50;;;;;;;29.47;30.43;100978.38;5592986;31;35178;-65
2022/05/26 09:56:44;;;;;;;1.10;0.30;;;;;;;29.54;29.79;100984.34;5589701;31;32387;-67
2022/05/26 09:59:48;;;;;;;0.45;0.40;;;;;;;27.91;30.51;100978.00;5590634;31;34020;-69
2022/05/26 10:02:52;;;;;;;1.00;0.50;;;;;;;28.14;31.07;100981.34;5589480;31;34228;-68
2022/05/26 10:06:27;;;;;;;0.68;0.40;;;;;;;29.42;29.66;100979.19;5589462;31;34230;-68
2022/05/26 10:09:50;;;;;;;1.23;0.60;;;;;;;27.99;29.25;100982.94;5590495;31;34309;-69
2022/05/26 10:13:09;;;;;;;3.30;0.65;;;;;;;29.53;27.56;100974.53;5589636;31;32555;-67
2022/05/26 10:16:32;;;;;;;2.87;0.50;;;;;;;29.74;26.33;100976.88;5589770;31;33476;-69
2022/05/26 10:19:53;;;;;;;0.80;0.45;;;;;;;27.47;30.48;100971.25;5590013;31;33964;-67
2022/05/26 10:23:33;;;;;;;1.02;0.60;;;;;;;27.47;30.60;100977.50;5589334;31;32667;-67
2022/05/26 10:27:01;;;;;;;0.73;0.40;;;;;;;27.56;31.13;100981.41;5589147;31;32579;-68
2022/05/26 10:30:28;;;;;;;1.15;0.50;;;;;;;29.67;29.21;100981.03;5582975;31;34263;-69
2022/05/26 10:34:08;;;;;;;4.87;0.52;;;;;;;28.37;30.57;100973.47;5589980;31;34712;-70
2022/05/26 10:37:32;;;;;;;2.37;0.52;;;;;;;30.91;27.17;100974.22;5575686;31;34567;-68
2022/05/26 10:40:59;;;;;;;0.60;0.40;;;;;;;30.81;26.79;100965.25;5589692;31;32402;-67
2022/05/26 10:44:01;;;;;;;1.33;0.52;;;;;;;32.77;24.12;100970.16;5576489;31;32322;-70
2022/05/26 10:47:09;;;;;;;1.95;0.50;;;;;;;31.33;26.60;100973.53;5589613;31;34119;-69
2022/05/26 10:50:45;;;;;;;1.12;0.50;;;;;;;31.57;25.21;100965.31;5590355;31;34038;-69
2022/05/26 10:53:55;;;;;;;1.33;0.50;;;;;;;32.01;24.71;100966.94;5589597;31;33563;-68
2022/05/26 10:57:09;;;;;;;1.30;0.40;;;;;;;32.19;25.50;100975.22;5590217;31;34606;-68
2022/05/26 11:00:18;;;;;;;1.20;0.47;;;;;;;30.51;26.15;100967.16;5589992;31;33996;-68
2022/05/26 11:03:27;;;;;;;1.08;0.60;;;;;;;27.86;29.74;100964.34;5588991;31;33497;-69
2022/05/26 11:06:34;;;;;;;1.67;0.50;;;;;;;27.19;31.01;100965.09;5589031;31;33154;-68
2022/05/26 11:09:53;;;;;;;2.05;0.50;;;;;;;28.38;29.83;100963.38;5589105;31;33614;-67
2022/05/26 11:13:11;;;;;;;1.23;0.73;;;;;;;26.62;32.18;100969.56;5589274;31;32751;-67
2022/05/26 11:20:06;;;;;;;2.80;0.60;;;;;;;25.85;33.75;100954.31;5589337;31;32457;-68
2022/05/26 11:23:09;;;;;;;1.62;0.55;;;;;;;26.42;32.89;100955.78;5589116;31;32685;-69
2022/05/26 11:26:29;;;;;;;1.40;0.85;;;;;;;26.11;34.22;100951.87;5575564;31;32692;-69
2022/05/26 11:29:40;;;;;;;1.58;0.52;;;;;;;26.57;34.34;100951.28;5588907;31;34507;-68
2022/05/26 11:36:14;;;;;;;2.10;0.50;;;;;;;29.73;27.61;100936.94;5588346;31;32432;-68
2022/05/26 11:39:28;;;;;;;1.37;0.60;;;;;;;31.00;26.87;100950.56;5588600;31;33291;-67
2022/05/26 11:42:35;;;;;;;1.23;0.60;;;;;;;29.88;28.16;100947.00;5588741;31;33351;-69
2022/05/26 11:45:51;;;;;;;1.08;0.50;;;;;;;31.15;28.08;100946.03;5588179;31;32624;-67
2022/05/26 11:48:54;;;;;;;1.70;0.50;;;;;;;29.11;30.71;100937.44;5587870;31;32937;-68
2022/05/26 11:51:57;;;;;;;2.87;0.70;;;;;;;27.80;32.62;100940.88;5589625;31;34616;-68
2022/05/26 11:55:02;;;;;;;0.62;0.50;;;;;;;28.08;32.66;100929.47;5589576;31;34541;-70
2022/05/26 11:58:52;;;;;;;1.98;0.57;;;;;;;31.27;29.03;100943.72;5588139;31;33039;-68
2022/05/26 12:02:00;;;;;;;0.52;0.47;;;;;;;30.20;28.43;100941.09;5547137;31;32488;-69
2022/05/26 12:05:28;;;;;;;0.68;0.50;;;;;;;29.40;30.05;100929.44;5589506;31;33973;-70
2022/05/26 12:08:39;;;;;;;1.77;0.70;;;;;;;31.95;26.08;100919.56;5588859;31;34390;-69
2022/05/26 12:12:03;;;;;;;4.03;1.00;;;;;;;32.84;24.44;100914.81;5588770;31;32936;-69
2022/05/26 12:15:17;;;;;;;1.55;0.60;;;;;;;33.74;24.60;100903.16;5588363;31;32749;-69
2022/05/26 12:18:21;;;;;;;0.98;0.80;;;;;;;31.23;25.64;100904.28;5588421;31;32598;-69
2022/05/26 12:21:27;;;;;;;0.65;0.50;;;;;;;29.41;27.88;100898.28;5588792;31;34309;-67
2022/05/26 12:24:33;;;;;;;0.65;0.40;;;;;;;28.44;29.35;100894.91;5588319;31;32267;-68
2022/05/26 12:27:57;;;;;;;2.65;0.50;;;;;;;27.32;31.33;100890.25;5588483;31;33902;-68
2022/05/26 12:31:00;;;;;;;0.95;0.50;;;;;;;31.69;26.41;100882.59;5588415;31;32490;-69
2022/05/26 12:34:16;;;;;;;0.77;0.50;;;;;;;33.69;23.43;100883.19;5589359;31;34686;-69
2022/05/26 12:37:34;;;;;;;1.23;0.40;;;;;;;36.72;21.05;100880.00;5588677;31;32405;-70
2022/05/26 12:41:10;;;;;;;0.70;0.35;;;;;;;37.86;18.72;100888.16;5588239;31;32252;-70
2022/05/26 12:44:47;;;;;;;1.73;0.65;;;;;;;36.69;19.35;100877.09;5589424;31;33902;-68
2022/05/26 12:48:03;;;;;;;4.10;0.70;;;;;;;31.85;23.95;100886.78;5589079;31;34113;-68
2022/05/26 12:51:12;;;;;;;1.40;0.40;;;;;;;27.99;29.29;100864.81;5588895;31;34320;-68
2022/05/26 12:54:49;;;;;;;0.50;0.50;;;;;;;26.96;32.39;100872.91;5588677;31;34235;-66
2022/05/26 12:58:19;;;;;;;5.45;0.73;;;;;;;26.42;32.18;100874.97;5588171;31;33300;-67
2022/05/26 13:01:24;;;;;;;4.18;0.70;;;;;;;25.78;33.34;100880.34;5588529;31;35226;-67
2022/05/26 13:04:35;;;;;;;1.05;0.55;;;;;;;25.38;33.88;100867.06;5588454;31;34606;-67
2022/05/26 13:07:37;;;;;;;1.02;0.40;;;;;;;24.88;34.88;100871.84;5587979;31;33343;-68
2022/05/26 13:10:42;;;;;;;1.62;0.75;;;;;;;25.55;33.00;100874.37;5588575;31;33920;-70
2022/05/26 13:13:57;;;;;;;0.47;0.40;;;;;;;25.57;32.59;100855.91;5588609;31;33878;-68
2022/05/26 13:17:10;;;;;;;0.70;0.40;;;;;;;26.76;31.45;100862.69;5587694;31;32516;-68
2022/05/26 13:20:39;;;;;;;0.65;0.40;;;;;;;29.29;26.76;100865.75;5588310;31;34815;-68
2022/05/26 13:24:00;;;;;;;1.17;0.50;;;;;;;33.19;22.22;100859.19;5587044;31;34175;-67
2022/05/26 13:27:09;;;;;;;3.28;0.80;;;;;;;29.39;26.65;100856.72;5573735;31;34148;-69
2022/05/26 13:33:47;;;;;;;2.25;0.80;;;;;;;27.63;31.34;100850.31;5587612;31;34015;-69
2022/05/26 13:36:50;;;;;;;1.20;0.50;;;;;;;31.00;25.11;100840.94;5587038;31;35276;-68
2022/05/26 13:40:23;;;;;;;0.45;0.40;;;;;;;32.85;23.63;100844.19;5587297;31;33166;-69
2022/05/26 13:43:28;;;;;;;1.92;0.40;;;;;;;34.92;20.32;100863.28;5586876;31;33653;-68
2022/05/26 13:46:43;;;;;;;1.05;0.50;;;;;;;30.98;23.75;100848.62;5573782;31;33769;-68
2022/05/26 13:50:00;;;;;;;1.15;0.40;;;;;;;33.54;21.02;100841.09;5586891;31;33205;-68
2022/05/26 13:53:03;;;;;;;1.23;0.37;;;;;;;32.63;22.16;100839.38;5587289;31;34943;-68
2022/05/26 13:56:08;;;;;;;1.83;0.40;;;;;;;33.62;21.25;100842.28;5586544;31;35226;-68
2022/05/26 13:59:13;;;;;;;2.70;0.50;;;;;;;33.33;20.73;100837.16;5587476;31;33940;-69
2022/05/26 14:02:19;;;;;;;1.50;0.45;;;;;;;34.63;19.94;100844.47;5586067;31;32747;-69
2022/05/26 14:05:28;;;;;;;2.67;0.40;;;;;;;34.16;20.33;100832.19;5572936;31;34548;-68
2022/05/26 14:08:32;;;;;;;0.30;0.30;;;;;;;33.83;20.46;100828.91;5585469;31;33201;-67
2022/05/26 14:11:45;;;;;;;2.60;0.40;;;;;;;30.46;24.76;100824.81;5586518;31;33903;-67
2022/05/26 14:14:47;;;;;;;1.35;0.60;;;;;;;27.95;28.71;100823.66;5588171;31;33946;-67
2022/05/26 14:17:55;;;;;;;0.93;0.50;;;;;;;27.10;31.65;100819.63;5588403;31;34369;-67
2022/05/26 14:21:00;;;;;;;2.67;0.57;;;;;;;26.43;31.79;100813.22;5588874;31;32736;-67
2022/05/26 14:24:25;;;;;;;1.00;0.60;;;;;;;26.33;33.99;100811.25;5588611;31;32956;-66
2022/05/26 14:27:50;;;;;;;1.75;0.50;;;;;;;25.74;33.49;100805.81;5587845;31;34281;-67
2022/05/26 14:30:53;;;;;;;0.98;0.50;;;;;;;26.35;32.17;100812.63;5589302;31;34308;-67
2022/05/26 14:33:58;;;;;;;1.65;0.40;;;;;;;27.61;30.77;100811.59;5589430;31;34594;-69
2022/05/26 14:37:01;;;;;;;1.15;0.90;;;;;;;28.21;30.30;100808.12;5589237;31;34214;-68
2022/05/26 14:40:04;;;;;;;1.58;0.80;;;;;;;30.03;28.46;100812.03;5588447;31;32593;-69
2022/05/26 14:43:08;;;;;;;1.35;0.60;;;;;;;31.98;25.40;100811.09;5588922;31;34703;-68
2022/05/26 14:46:10;;;;;;;1.30;0.52;;;;;;;33.47;23.11;100815.94;5588376;31;33272;-68
2022/05/26 14:49:14;;;;;;;1.17;0.62;;;;;;;31.88;25.03;100804.66;5589007;31;34543;-68
2022/05/26 14:52:21;;;;;;;0.68;0.40;;;;;;;31.08;26.30;100800.34;5575149;31;33377;-67
2022/05/26 14:55:28;;;;;;;1.85;0.50;;;;;;;31.77;25.43;100796.87;5588080;31;34533;-69
2022/05/26 14:58:30;;;;;;;2.85;0.50;;;;;;;33.57;23.46;100806.63;5587961;31;33789;-66
2022/05/26 15:01:33;;;;;;;0.62;0.60;;;;;;;31.52;25.47;100782.41;5588504;31;33241;-69
2022/05/26 15:04:37;;;;;;;1.60;0.57;;;;;;;33.03;24.31;100780.84;5588345;31;33221;-66
2022/05/26 15:07:42;;;;;;;1.00;0.50;;;;;;;31.69;25.60;100783.84;5588129;31;32663;-67
2022/05/26 15:10:44;;;;;;;1.25;0.60;;;;;;;31.47;26.18;100771.50;5588281;31;32904;-68
2022/05/26 15:13:47;;;;;;;0.85;0.50;;;;;;;33.12;23.91;100765.25;5588573;31;32833;-69